sensor_id;sensor_type;location;lat;lon;timestamp;pressure;altitude;pressure_sealevel;temperature;humidity
41062;BME280;26812;42.662;23.352;2023-02-28T00:01:12;95381.69;;;9.42;73.29
41062;BME280;26812;42.662;23.352;2023-02-28T00:03:38;95378.78;;;9.25;73.10
41062;BME280;26812;42.662;23.352;2023-02-28T00:06:05;95398.78;;;8.86;74.68
41062;BME280;26812;42.662;23.352;2023-02-28T00:08:30;95387.75;;;9.34;73.08
41062;BME280;26812;42.662;23.352;2023-02-28T00:10:56;95365.38;;;8.92;73.69
41062;BME280;26812;42.662;23.352;2023-02-28T00:13:21;95377.56;;;9.17;74.08
41062;BME280;26812;42.662;23.352;2023-02-28T00:15:47;95372.56;;;9.11;74.18
41062;BME280;26812;42.662;23.352;2023-02-28T00:18:12;95353.91;;;9.60;71.21
41062;BME280;26812;42.662;23.352;2023-02-28T00:20:38;95380.97;;;9.37;72.08
41062;BME280;26812;42.662;23.352;2023-02-28T00:23:04;95393.13;;;9.48;72.28
41062;BME280;26812;42.662;23.352;2023-02-28T00:25:30;95401.81;;;9.58;71.19
41062;BME280;26812;42.662;23.352;2023-02-28T00:27:55;95383.81;;;9.13;73.87
41062;BME280;26812;42.662;23.352;2023-02-28T00:30:22;95397.13;;;9.37;72.71
41062;BME280;26812;42.662;23.352;2023-02-28T00:32:49;95419.31;;;8.21;76.76
41062;BME280;26812;42.662;23.352;2023-02-28T00:35:14;95395.44;;;8.62;77.49
41062;BME280;26812;42.662;23.352;2023-02-28T00:37:40;95360.81;;;8.93;75.44
41062;BME280;26812;42.662;23.352;2023-02-28T00:40:06;95406.03;;;8.86;75.71
41062;BME280;26812;42.662;23.352;2023-02-28T00:42:35;95395.25;;;8.72;76.00
41062;BME280;26812;42.662;23.352;2023-02-28T00:45:02;95389.03;;;8.58;76.48
41062;BME280;26812;42.662;23.352;2023-02-28T00:47:29;95380.38;;;9.26;73.84
41062;BME280;26812;42.662;23.352;2023-02-28T00:49:54;95378.94;;;9.01;74.31
41062;BME280;26812;42.662;23.352;2023-02-28T00:52:20;95388.00;;;8.73;75.23
41062;BME280;26812;42.662;23.352;2023-02-28T00:54:46;95364.44;;;8.83;74.88
41062;BME280;26812;42.662;23.352;2023-02-28T00:57:14;95346.72;;;8.12;77.80
41062;BME280;26812;42.662;23.352;2023-02-28T00:59:40;95380.47;;;8.56;76.96
41062;BME280;26812;42.662;23.352;2023-02-28T01:02:05;95351.56;;;7.91;76.47
41062;BME280;26812;42.662;23.352;2023-02-28T01:04:31;95346.91;;;7.78;79.15
41062;BME280;26812;42.662;23.352;2023-02-28T01:06:56;95404.28;;;8.62;77.03
41062;BME280;26812;42.662;23.352;2023-02-28T01:09:22;95407.31;;;7.75;79.99
41062;BME280;26812;42.662;23.352;2023-02-28T01:11:47;95367.75;;;8.05;79.83
41062;BME280;26812;42.662;23.352;2023-02-28T01:14:14;95394.16;;;8.92;77.14
41062;BME280;26812;42.662;23.352;2023-02-28T01:16:40;95384.50;;;8.72;77.33
41062;BME280;26812;42.662;23.352;2023-02-28T01:19:06;95387.09;;;8.45;77.43
41062;BME280;26812;42.662;23.352;2023-02-28T01:21:31;95368.53;;;8.24;77.92
41062;BME280;26812;42.662;23.352;2023-02-28T01:23:57;95398.16;;;8.76;77.35
41062;BME280;26812;42.662;23.352;2023-02-28T01:26:23;95392.47;;;8.96;76.50
41062;BME280;26812;42.662;23.352;2023-02-28T01:28:49;95387.00;;;8.68;75.54
41062;BME280;26812;42.662;23.352;2023-02-28T01:31:16;95360.34;;;8.53;74.85
41062;BME280;26812;42.662;23.352;2023-02-28T01:33:41;95348.47;;;8.40;75.89
41062;BME280;26812;42.662;23.352;2023-02-28T01:36:13;95346.09;;;8.39;75.01
41062;BME280;26812;42.662;23.352;2023-02-28T01:38:40;95389.69;;;8.31;76.31
41062;BME280;26812;42.662;23.352;2023-02-28T01:41:07;95362.91;;;8.63;75.27
41062;BME280;26812;42.662;23.352;2023-02-28T01:46:18;95385.19;;;8.64;74.86
41062;BME280;26812;42.662;23.352;2023-02-28T01:48:54;95387.16;;;7.78;77.75
41062;BME280;26812;42.662;23.352;2023-02-28T01:54:01;95402.22;;;8.17;78.00
41062;BME280;26812;42.662;23.352;2023-02-28T01:56:30;95389.19;;;7.86;79.65
41062;BME280;26812;42.662;23.352;2023-02-28T01:58:58;95365.66;;;7.59;79.11
41062;BME280;26812;42.662;23.352;2023-02-28T02:01:26;95384.47;;;7.54;80.91
41062;BME280;26812;42.662;23.352;2023-02-28T02:03:57;95381.72;;;7.83;80.21
41062;BME280;26812;42.662;23.352;2023-02-28T02:06:34;95392.66;;;7.15;81.96
41062;BME280;26812;42.662;23.352;2023-02-28T02:09:01;95371.47;;;7.42;82.42
41062;BME280;26812;42.662;23.352;2023-02-28T02:11:27;95341.72;;;7.44;81.16
41062;BME280;26812;42.662;23.352;2023-02-28T02:17:07;95393.28;;;8.21;78.07
41062;BME280;26812;42.662;23.352;2023-02-28T02:23:32;95368.34;;;7.35;79.60
41062;BME280;26812;42.662;23.352;2023-02-28T02:26:10;95346.38;;;7.57;79.84
41062;BME280;26812;42.662;23.352;2023-02-28T02:34:16;95391.09;;;8.80;74.83
41062;BME280;26812;42.662;23.352;2023-02-28T02:42:52;95391.72;;;8.58;76.33
41062;BME280;26812;42.662;23.352;2023-02-28T02:45:35;95400.13;;;8.70;75.25
41062;BME280;26812;42.662;23.352;2023-02-28T02:48:05;95404.00;;;8.45;76.28
41062;BME280;26812;42.662;23.352;2023-02-28T02:50:55;95399.41;;;8.46;76.45
41062;BME280;26812;42.662;23.352;2023-02-28T02:53:27;95393.31;;;8.40;75.70
41062;BME280;26812;42.662;23.352;2023-02-28T02:55:55;95400.41;;;8.12;76.96
41062;BME280;26812;42.662;23.352;2023-02-28T02:58:30;95394.50;;;8.85;75.71
41062;BME280;26812;42.662;23.352;2023-02-28T03:01:00;95397.59;;;8.41;75.92
41062;BME280;26812;42.662;23.352;2023-02-28T03:03:27;95404.88;;;8.59;75.77
41062;BME280;26812;42.662;23.352;2023-02-28T03:06:00;95423.88;;;8.44;76.52
41062;BME280;26812;42.662;23.352;2023-02-28T03:08:27;95379.69;;;7.94;77.98
41062;BME280;26812;42.662;23.352;2023-02-28T03:10:59;95379.56;;;8.23;76.91
41062;BME280;26812;42.662;23.352;2023-02-28T03:19:40;95442.28;;;8.32;75.55
41062;BME280;26812;42.662;23.352;2023-02-28T03:22:01;95440.47;;;8.27;77.68
41062;BME280;26812;42.662;23.352;2023-02-28T03:29:43;95435.34;;;9.33;73.19
41062;BME280;26812;42.662;23.352;2023-02-28T03:32:26;95449.56;;;8.69;73.96
41062;BME280;26812;42.662;23.352;2023-02-28T03:35:02;95451.31;;;9.11;73.88
41062;BME280;26812;42.662;23.352;2023-02-28T03:37:32;95435.44;;;8.63;74.46
41062;BME280;26812;42.662;23.352;2023-02-28T03:40:05;95424.63;;;8.07;76.32
41062;BME280;26812;42.662;23.352;2023-02-28T03:42:36;95436.53;;;8.20;76.19
41062;BME280;26812;42.662;23.352;2023-02-28T03:45:13;95437.72;;;8.32;76.42
41062;BME280;26812;42.662;23.352;2023-02-28T03:47:44;95437.53;;;8.05;77.40
41062;BME280;26812;42.662;23.352;2023-02-28T03:50:17;95460.69;;;8.20;77.33
41062;BME280;26812;42.662;23.352;2023-02-28T03:53:10;95459.44;;;8.55;76.60
41062;BME280;26812;42.662;23.352;2023-02-28T03:55:44;95463.72;;;8.37;76.09
41062;BME280;26812;42.662;23.352;2023-02-28T04:01:13;95448.75;;;8.31;76.14
41062;BME280;26812;42.662;23.352;2023-02-28T04:03:41;95453.06;;;8.08;78.22
41062;BME280;26812;42.662;23.352;2023-02-28T04:06:15;95448.69;;;8.74;74.15
41062;BME280;26812;42.662;23.352;2023-02-28T04:08:41;95451.16;;;8.51;74.73
41062;BME280;26812;42.662;23.352;2023-02-28T04:13:40;95463.28;;;8.25;76.81
41062;BME280;26812;42.662;23.352;2023-02-28T04:16:09;95427.38;;;8.21;76.25
41062;BME280;26812;42.662;23.352;2023-02-28T04:18:41;95448.22;;;8.85;74.93
41062;BME280;26812;42.662;23.352;2023-02-28T04:21:08;95455.88;;;8.40;75.90
41062;BME280;26812;42.662;23.352;2023-02-28T04:23:34;95449.47;;;8.93;74.37
41062;BME280;26812;42.662;23.352;2023-02-28T04:25:59;95441.66;;;8.40;75.54
41062;BME280;26812;42.662;23.352;2023-02-28T04:28:26;95447.25;;;8.01;76.69
41062;BME280;26812;42.662;23.352;2023-02-28T04:30:59;95460.81;;;7.86;78.87
41062;BME280;26812;42.662;23.352;2023-02-28T04:33:25;95445.97;;;7.16;80.28
41062;BME280;26812;42.662;23.352;2023-02-28T04:36:08;95446.63;;;7.32;82.40
41062;BME280;26812;42.662;23.352;2023-02-28T04:38:38;95451.47;;;7.83;79.87
41062;BME280;26812;42.662;23.352;2023-02-28T04:41:04;95463.19;;;7.63;79.77
41062;BME280;26812;42.662;23.352;2023-02-28T04:43:30;95468.44;;;7.50;80.76
41062;BME280;26812;42.662;23.352;2023-02-28T04:45:57;95477.66;;;7.91;79.60
41062;BME280;26812;42.662;23.352;2023-02-28T04:48:24;95464.53;;;7.90;78.93
41062;BME280;26812;42.662;23.352;2023-02-28T04:50:51;95484.69;;;8.54;76.35
41062;BME280;26812;42.662;23.352;2023-02-28T04:53:17;95473.28;;;8.19;76.05
41062;BME280;26812;42.662;23.352;2023-02-28T04:55:42;95461.31;;;7.64;78.14
41062;BME280;26812;42.662;23.352;2023-02-28T04:58:08;95474.63;;;8.64;75.79
41062;BME280;26812;42.662;23.352;2023-02-28T05:00:33;95480.56;;;8.19;76.60
41062;BME280;26812;42.662;23.352;2023-02-28T05:02:59;95477.13;;;8.13;76.05
41062;BME280;26812;42.662;23.352;2023-02-28T05:05:24;95486.50;;;8.16;76.05
41062;BME280;26812;42.662;23.352;2023-02-28T05:07:50;95468.13;;;8.04;77.28
41062;BME280;26812;42.662;23.352;2023-02-28T05:10:15;95453.59;;;8.29;76.18
41062;BME280;26812;42.662;23.352;2023-02-28T05:12:40;95480.13;;;8.12;75.96
41062;BME280;26812;42.662;23.352;2023-02-28T05:15:07;95455.34;;;7.72;77.72
41062;BME280;26812;42.662;23.352;2023-02-28T05:17:33;95488.72;;;7.85;77.32
41062;BME280;26812;42.662;23.352;2023-02-28T05:19:59;95488.41;;;7.67;78.72
41062;BME280;26812;42.662;23.352;2023-02-28T05:22:24;95494.72;;;7.76;78.95
41062;BME280;26812;42.662;23.352;2023-02-28T05:24:50;95492.69;;;7.63;79.43
41062;BME280;26812;42.662;23.352;2023-02-28T05:27:15;95468.47;;;7.73;77.76
41062;BME280;26812;42.662;23.352;2023-02-28T05:29:40;95502.25;;;8.22;77.55
41062;BME280;26812;42.662;23.352;2023-02-28T05:32:11;95498.50;;;7.99;77.08
41062;BME280;26812;42.662;23.352;2023-02-28T05:34:40;95511.00;;;8.09;77.59
41062;BME280;26812;42.662;23.352;2023-02-28T05:37:13;95493.94;;;8.00;76.00
41062;BME280;26812;42.662;23.352;2023-02-28T05:39:39;95505.06;;;8.12;76.78
41062;BME280;26812;42.662;23.352;2023-02-28T05:42:05;95494.16;;;8.03;75.90
41062;BME280;26812;42.662;23.352;2023-02-28T05:44:30;95495.00;;;7.75;77.16
41062;BME280;26812;42.662;23.352;2023-02-28T05:46:56;95500.13;;;7.13;80.28
41062;BME280;26812;42.662;23.352;2023-02-28T05:49:21;95518.19;;;7.37;81.63
41062;BME280;26812;42.662;23.352;2023-02-28T05:51:47;95503.88;;;7.75;79.03
41062;BME280;26812;42.662;23.352;2023-02-28T05:54:12;95491.78;;;7.49;79.57
41062;BME280;26812;42.662;23.352;2023-02-28T05:56:38;95524.41;;;7.85;78.76
41062;BME280;26812;42.662;23.352;2023-02-28T05:59:05;95508.59;;;8.31;75.88
41062;BME280;26812;42.662;23.352;2023-02-28T06:01:35;95538.13;;;8.31;76.35
41062;BME280;26812;42.662;23.352;2023-02-28T06:04:01;95528.69;;;7.57;79.33
41062;BME280;26812;42.662;23.352;2023-02-28T06:06:28;95529.97;;;7.65;79.29
41062;BME280;26812;42.662;23.352;2023-02-28T06:08:55;95505.69;;;7.80;79.88
41062;BME280;26812;42.662;23.352;2023-02-28T06:11:20;95513.63;;;7.90;78.50
41062;BME280;26812;42.662;23.352;2023-02-28T06:13:46;95532.25;;;8.05;77.82
41062;BME280;26812;42.662;23.352;2023-02-28T06:16:11;95514.94;;;8.40;76.82
41062;BME280;26812;42.662;23.352;2023-02-28T06:18:37;95505.47;;;8.00;76.79
41062;BME280;26812;42.662;23.352;2023-02-28T06:21:03;95513.06;;;8.17;77.12
41062;BME280;26812;42.662;23.352;2023-02-28T06:23:28;95519.38;;;8.26;77.14
41062;BME280;26812;42.662;23.352;2023-02-28T06:25:54;95514.06;;;7.73;79.95
41062;BME280;26812;42.662;23.352;2023-02-28T06:28:23;95495.97;;;7.84;78.86
41062;BME280;26812;42.662;23.352;2023-02-28T06:30:49;95510.97;;;8.38;77.47
41062;BME280;26812;42.662;23.352;2023-02-28T06:33:14;95525.91;;;8.20;76.27
41062;BME280;26812;42.662;23.352;2023-02-28T06:35:39;95535.72;;;8.06;78.44
41062;BME280;26812;42.662;23.352;2023-02-28T06:38:05;95529.34;;;8.02;78.70
41062;BME280;26812;42.662;23.352;2023-02-28T06:40:30;95524.44;;;8.09;77.47
41062;BME280;26812;42.662;23.352;2023-02-28T06:42:59;95534.81;;;7.63;78.46
41062;BME280;26812;42.662;23.352;2023-02-28T06:45:24;95542.41;;;7.22;81.84
41062;BME280;26812;42.662;23.352;2023-02-28T06:47:51;95524.69;;;7.26;82.94
41062;BME280;26812;42.662;23.352;2023-02-28T06:50:17;95551.84;;;7.77;81.57
41062;BME280;26812;42.662;23.352;2023-02-28T06:52:44;95526.22;;;7.66;79.47
41062;BME280;26812;42.662;23.352;2023-02-28T06:55:10;95526.63;;;7.78;79.72
41062;BME280;26812;42.662;23.352;2023-02-28T06:57:36;95541.53;;;7.89;80.11
41062;BME280;26812;42.662;23.352;2023-02-28T07:00:05;95506.25;;;7.77;79.61
41062;BME280;26812;42.662;23.352;2023-02-28T07:02:33;95537.53;;;7.87;78.70
41062;BME280;26812;42.662;23.352;2023-02-28T07:04:59;95540.09;;;8.68;76.07
41062;BME280;26812;42.662;23.352;2023-02-28T07:07:24;95515.00;;;7.88;77.36
41062;BME280;26812;42.662;23.352;2023-02-28T07:09:50;95550.47;;;8.08;77.83
41062;BME280;26812;42.662;23.352;2023-02-28T07:12:15;95550.19;;;8.10;78.73
41062;BME280;26812;42.662;23.352;2023-02-28T07:14:41;95515.03;;;7.83;77.91
41062;BME280;26812;42.662;23.352;2023-02-28T07:17:07;95540.47;;;8.14;77.13
41062;BME280;26812;42.662;23.352;2023-02-28T07:19:39;95521.69;;;8.14;77.58
41062;BME280;26812;42.662;23.352;2023-02-28T07:22:05;95520.34;;;7.88;78.07
41062;BME280;26812;42.662;23.352;2023-02-28T07:24:31;95527.78;;;7.96;78.26
41062;BME280;26812;42.662;23.352;2023-02-28T07:26:57;95512.25;;;8.17;76.54
41062;BME280;26812;42.662;23.352;2023-02-28T07:29:22;95525.06;;;8.01;77.49
41062;BME280;26812;42.662;23.352;2023-02-28T07:31:47;95530.91;;;8.51;76.76
41062;BME280;26812;42.662;23.352;2023-02-28T07:34:15;95509.06;;;7.91;76.94
41062;BME280;26812;42.662;23.352;2023-02-28T07:36:43;95501.94;;;8.05;77.19
41062;BME280;26812;42.662;23.352;2023-02-28T07:39:08;95538.13;;;8.55;77.02
41062;BME280;26812;42.662;23.352;2023-02-28T07:41:34;95538.66;;;8.76;76.17
41062;BME280;26812;42.662;23.352;2023-02-28T07:44:02;95552.66;;;8.73;76.77
41062;BME280;26812;42.662;23.352;2023-02-28T07:46:28;95537.03;;;9.13;75.83
41062;BME280;26812;42.662;23.352;2023-02-28T07:49:00;95549.34;;;8.38;78.43
41062;BME280;26812;42.662;23.352;2023-02-28T07:51:28;95554.63;;;8.86;77.54
41062;BME280;26812;42.662;23.352;2023-02-28T07:53:54;95523.16;;;8.49;75.83
41062;BME280;26812;42.662;23.352;2023-02-28T07:56:19;95499.59;;;9.02;75.83
41062;BME280;26812;42.662;23.352;2023-02-28T07:58:44;95521.41;;;9.33;74.21
41062;BME280;26812;42.662;23.352;2023-02-28T08:01:10;95541.94;;;9.43;74.54
41062;BME280;26812;42.662;23.352;2023-02-28T08:03:36;95513.03;;;9.35;74.27
41062;BME280;26812;42.662;23.352;2023-02-28T08:06:06;95508.72;;;9.53;73.40
41062;BME280;26812;42.662;23.352;2023-02-28T08:08:33;95526.00;;;9.33;73.76
41062;BME280;26812;42.662;23.352;2023-02-28T08:11:04;95533.38;;;9.74;72.98
41062;BME280;26812;42.662;23.352;2023-02-28T08:13:30;95537.00;;;9.96;71.97
41062;BME280;26812;42.662;23.352;2023-02-28T08:15:56;95510.44;;;9.30;73.38
41062;BME280;26812;42.662;23.352;2023-02-28T08:18:22;95527.63;;;9.48;75.12
41062;BME280;26812;42.662;23.352;2023-02-28T08:20:48;95490.09;;;9.70;73.62
41062;BME280;26812;42.662;23.352;2023-02-28T08:23:14;95497.22;;;9.80;73.47
41062;BME280;26812;42.662;23.352;2023-02-28T08:25:39;95551.22;;;10.30;73.80
41062;BME280;26812;42.662;23.352;2023-02-28T08:28:05;95521.19;;;9.62;75.49
41062;BME280;26812;42.662;23.352;2023-02-28T08:30:30;95520.63;;;9.79;75.92
41062;BME280;26812;42.662;23.352;2023-02-28T08:32:56;95518.28;;;10.33;74.38
41062;BME280;26812;42.662;23.352;2023-02-28T08:35:22;95513.91;;;10.23;73.51
41062;BME280;26812;42.662;23.352;2023-02-28T08:37:48;95528.47;;;10.36;73.76
41062;BME280;26812;42.662;23.352;2023-02-28T08:40:14;95555.50;;;10.58;74.11
41062;BME280;26812;42.662;23.352;2023-02-28T08:42:44;95535.13;;;10.79;73.58
41062;BME280;26812;42.662;23.352;2023-02-28T08:45:11;95495.88;;;10.87;72.58
41062;BME280;26812;42.662;23.352;2023-02-28T08:47:36;95520.25;;;10.82;73.35
41062;BME280;26812;42.662;23.352;2023-02-28T08:50:02;95538.56;;;11.52;70.64
41062;BME280;26812;42.662;23.352;2023-02-28T08:52:27;95542.19;;;11.47;70.81
41062;BME280;26812;42.662;23.352;2023-02-28T08:54:53;95507.97;;;11.12;71.74
41062;BME280;26812;42.662;23.352;2023-02-28T08:57:18;95451.91;;;10.64;70.80
41062;BME280;26812;42.662;23.352;2023-02-28T08:59:43;95549.34;;;11.07;71.20
41062;BME280;26812;42.662;23.352;2023-02-28T09:02:12;95522.69;;;11.50;69.95
41062;BME280;26812;42.662;23.352;2023-02-28T09:04:38;95538.69;;;11.47;70.83
41062;BME280;26812;42.662;23.352;2023-02-28T09:07:03;95515.44;;;11.60;69.64
41062;BME280;26812;42.662;23.352;2023-02-28T09:09:29;95535.47;;;11.36;70.15
41062;BME280;26812;42.662;23.352;2023-02-28T09:11:57;95517.81;;;11.61;70.10
41062;BME280;26812;42.662;23.352;2023-02-28T09:14:23;95540.66;;;11.55;72.09
41062;BME280;26812;42.662;23.352;2023-02-28T09:16:48;95516.06;;;11.12;71.55
41062;BME280;26812;42.662;23.352;2023-02-28T09:19:14;95525.25;;;10.61;72.93
41062;BME280;26812;42.662;23.352;2023-02-28T09:21:40;95549.66;;;10.92;72.87
41062;BME280;26812;42.662;23.352;2023-02-28T09:24:06;95549.66;;;11.06;72.73
41062;BME280;26812;42.662;23.352;2023-02-28T09:26:31;95538.13;;;11.59;71.39
41062;BME280;26812;42.662;23.352;2023-02-28T09:28:57;95556.06;;;11.99;68.89
41062;BME280;26812;42.662;23.352;2023-02-28T09:31:26;95544.06;;;11.92;69.28
41062;BME280;26812;42.662;23.352;2023-02-28T09:33:54;95543.56;;;12.12;68.62
41062;BME280;26812;42.662;23.352;2023-02-28T09:36:22;95550.31;;;12.32;67.96
41062;BME280;26812;42.662;23.352;2023-02-28T09:38:48;95511.16;;;12.12;67.19
41062;BME280;26812;42.662;23.352;2023-02-28T09:41:15;95546.72;;;12.45;66.11
41062;BME280;26812;42.662;23.352;2023-02-28T09:43:44;95510.16;;;11.77;68.29
41062;BME280;26812;42.662;23.352;2023-02-28T09:48:41;95524.13;;;12.01;68.16
41062;BME280;26812;42.662;23.352;2023-02-28T09:51:20;95530.38;;;12.19;67.72
41062;BME280;26812;42.662;23.352;2023-02-28T09:53:49;95538.88;;;12.35;66.70
41062;BME280;26812;42.662;23.352;2023-02-28T09:56:19;95514.44;;;12.40;66.29
41062;BME280;26812;42.662;23.352;2023-02-28T09:58:58;95534.59;;;12.91;64.58
41062;BME280;26812;42.662;23.352;2023-02-28T10:04:58;95497.84;;;13.16;62.43
41062;BME280;26812;42.662;23.352;2023-02-28T10:10:20;95531.78;;;13.30;62.35
41062;BME280;26812;42.662;23.352;2023-02-28T10:12:48;95511.38;;;13.42;62.37
41062;BME280;26812;42.662;23.352;2023-02-28T10:15:15;95486.41;;;13.27;61.25
41062;BME280;26812;42.662;23.352;2023-02-28T10:17:44;95528.81;;;13.96;61.11
41062;BME280;26812;42.662;23.352;2023-02-28T10:20:19;95510.69;;;13.88;59.14
41062;BME280;26812;42.662;23.352;2023-02-28T10:22:52;95516.41;;;13.95;59.97
41062;BME280;26812;42.662;23.352;2023-02-28T10:25:25;95512.06;;;14.03;59.29
41062;BME280;26812;42.662;23.352;2023-02-28T10:28:16;95509.16;;;14.08;59.17
41062;BME280;26812;42.662;23.352;2023-02-28T10:30:46;95510.34;;;14.36;58.41
41062;BME280;26812;42.662;23.352;2023-02-28T10:35:53;95506.72;;;16.32;52.97
41062;BME280;26812;42.662;23.352;2023-02-28T10:38:27;95480.75;;;17.63;48.69
41062;BME280;26812;42.662;23.352;2023-02-28T10:41:10;95494.31;;;18.98;45.08
41062;BME280;26812;42.662;23.352;2023-02-28T10:43:38;95475.38;;;20.25;41.05
41062;BME280;26812;42.662;23.352;2023-02-28T10:46:05;95481.81;;;19.71;42.68
41062;BME280;26812;42.662;23.352;2023-02-28T10:49:02;95485.44;;;20.40;40.65
41062;BME280;26812;42.662;23.352;2023-02-28T10:51:38;95474.88;;;19.96;41.52
41062;BME280;26812;42.662;23.352;2023-02-28T10:54:04;95456.28;;;20.05;41.29
41062;BME280;26812;42.662;23.352;2023-02-28T10:56:31;95462.50;;;20.74;39.15
41062;BME280;26812;42.662;23.352;2023-02-28T10:59:02;95463.47;;;20.86;38.58
41062;BME280;26812;42.662;23.352;2023-02-28T11:01:45;95448.41;;;20.99;38.01
41062;BME280;26812;42.662;23.352;2023-02-28T11:04:20;95466.50;;;21.67;37.33
41062;BME280;26812;42.662;23.352;2023-02-28T11:06:59;95451.81;;;21.19;37.59
41062;BME280;26812;42.662;23.352;2023-02-28T11:09:31;95450.81;;;21.64;36.29
41062;BME280;26812;42.662;23.352;2023-02-28T11:11:58;95414.81;;;20.49;37.93
41062;BME280;26812;42.662;23.352;2023-02-28T11:14:26;95409.59;;;19.72;39.77
41062;BME280;26812;42.662;23.352;2023-02-28T11:16:53;95435.34;;;20.89;38.48
41062;BME280;26812;42.662;23.352;2023-02-28T11:19:26;95401.22;;;20.07;39.48
41062;BME280;26812;42.662;23.352;2023-02-28T11:22:03;95420.59;;;20.97;37.85
41062;BME280;26812;42.662;23.352;2023-02-28T11:24:34;95439.16;;;19.66;39.69
41062;BME280;26812;42.662;23.352;2023-02-28T11:27:00;95426.31;;;18.74;42.02
41062;BME280;26812;42.662;23.352;2023-02-28T11:29:32;95445.94;;;18.48;42.24
41062;BME280;26812;42.662;23.352;2023-02-28T11:32:25;95439.41;;;17.74;44.82
41062;BME280;26812;42.662;23.352;2023-02-28T11:37:34;95430.19;;;16.94;47.21
41062;BME280;26812;42.662;23.352;2023-02-28T11:40:00;95429.16;;;17.83;44.85
41062;BME280;26812;42.662;23.352;2023-02-28T11:42:38;95428.06;;;18.66;42.83
41062;BME280;26812;42.662;23.352;2023-02-28T11:48:16;95433.47;;;17.84;46.00
41062;BME280;26812;42.662;23.352;2023-02-28T11:53:51;95421.66;;;18.27;43.70
41062;BME280;26812;42.662;23.352;2023-02-28T11:58:59;95402.59;;;17.95;44.70
41062;BME280;26812;42.662;23.352;2023-02-28T12:07:16;95414.44;;;18.50;43.34
41062;BME280;26812;42.662;23.352;2023-02-28T12:16:02;95401.34;;;17.33;46.18
41062;BME280;26812;42.662;23.352;2023-02-28T12:19:05;95382.06;;;16.46;47.60
41062;BME280;26812;42.662;23.352;2023-02-28T12:26:43;95404.84;;;16.17;49.76
41062;BME280;26812;42.662;23.352;2023-02-28T12:29:22;95339.81;;;16.36;47.64
41062;BME280;26812;42.662;23.352;2023-02-28T12:32:13;95388.84;;;16.52;48.54
41062;BME280;26812;42.662;23.352;2023-02-28T12:35:19;95403.13;;;16.61;48.42
41062;BME280;26812;42.662;23.352;2023-02-28T12:40:32;95382.69;;;16.03;48.76
41062;BME280;26812;42.662;23.352;2023-02-28T12:43:03;95409.47;;;16.65;47.83
41062;BME280;26812;42.662;23.352;2023-02-28T12:48:09;95399.53;;;16.57;47.94
41062;BME280;26812;42.662;23.352;2023-02-28T12:50:37;95375.97;;;16.37;47.91
41062;BME280;26812;42.662;23.352;2023-02-28T12:53:10;95353.00;;;15.61;49.32
41062;BME280;26812;42.662;23.352;2023-02-28T12:58:45;95400.78;;;15.41;50.69
41062;BME280;26812;42.662;23.352;2023-02-28T13:01:31;95394.50;;;15.29;51.81
41062;BME280;26812;42.662;23.352;2023-02-28T13:04:28;95395.03;;;15.55;50.62
41062;BME280;26812;42.662;23.352;2023-02-28T13:09:26;95389.34;;;15.81;49.08
41062;BME280;26812;42.662;23.352;2023-02-28T13:11:52;95361.69;;;15.21;50.46
41062;BME280;26812;42.662;23.352;2023-02-28T13:14:20;95399.13;;;14.95;52.48
41062;BME280;26812;42.662;23.352;2023-02-28T13:19:22;95392.31;;;15.10;52.26
41062;BME280;26812;42.662;23.352;2023-02-28T13:21:50;95372.91;;;14.99;52.12
41062;BME280;26812;42.662;23.352;2023-02-28T13:24:55;95388.22;;;15.04;52.62
41062;BME280;26812;42.662;23.352;2023-02-28T13:27:25;95392.84;;;15.36;51.64
41062;BME280;26812;42.662;23.352;2023-02-28T13:29:56;95388.44;;;15.32;51.73
41062;BME280;26812;42.662;23.352;2023-02-28T13:40:30;95382.53;;;14.76;52.48
41062;BME280;26812;42.662;23.352;2023-02-28T13:50:15;95385.50;;;14.12;54.30
41062;BME280;26812;42.662;23.352;2023-02-28T13:52:55;95365.59;;;13.78;54.41
41062;BME280;26812;42.662;23.352;2023-02-28T13:55:37;95378.66;;;14.06;54.52
41062;BME280;26812;42.662;23.352;2023-02-28T14:01:35;95375.88;;;13.47;57.23
41062;BME280;26812;42.662;23.352;2023-02-28T14:06:55;95234.81;;;12.46;56.57
41062;BME280;26812;42.662;23.352;2023-02-28T14:09:25;95290.88;;;12.92;56.57
41062;BME280;26812;42.662;23.352;2023-02-28T14:11:53;95276.81;;;12.35;57.38
41062;BME280;26812;42.662;23.352;2023-02-28T14:17:14;95385.34;;;13.06;58.72
41062;BME280;26812;42.662;23.352;2023-02-28T14:19:44;95347.16;;;13.07;57.79
41062;BME280;26812;42.662;23.352;2023-02-28T14:25:17;95351.19;;;12.75;59.13
41062;BME280;26812;42.662;23.352;2023-02-28T14:27:53;95353.88;;;12.41;59.94
41062;BME280;26812;42.662;23.352;2023-02-28T14:30:51;95387.28;;;12.62;60.56
41062;BME280;26812;42.662;23.352;2023-02-28T14:33:22;95388.41;;;12.70;60.59
41062;BME280;26812;42.662;23.352;2023-02-28T14:38:48;95386.78;;;12.52;61.15
41062;BME280;26812;42.662;23.352;2023-02-28T14:41:29;95379.97;;;12.71;60.43
41062;BME280;26812;42.662;23.352;2023-02-28T14:43:58;95386.34;;;12.58;61.11
41062;BME280;26812;42.662;23.352;2023-02-28T14:46:36;95383.63;;;12.75;60.11
41062;BME280;26812;42.662;23.352;2023-02-28T14:49:04;95392.03;;;12.31;62.13
41062;BME280;26812;42.662;23.352;2023-02-28T14:51:32;95372.34;;;12.56;60.35
41062;BME280;26812;42.662;23.352;2023-02-28T14:54:00;95369.78;;;12.25;61.94
41062;BME280;26812;42.662;23.352;2023-02-28T14:56:34;95390.31;;;12.69;60.12
41062;BME280;26812;42.662;23.352;2023-02-28T14:59:00;95344.03;;;12.36;60.45
41062;BME280;26812;42.662;23.352;2023-02-28T15:01:26;95394.13;;;12.94;60.11
41062;BME280;26812;42.662;23.352;2023-02-28T15:04:04;95370.09;;;12.75;59.92
41062;BME280;26812;42.662;23.352;2023-02-28T15:06:31;95377.09;;;12.51;60.83
41062;BME280;26812;42.662;23.352;2023-02-28T15:09:15;95367.41;;;12.93;58.95
41062;BME280;26812;42.662;23.352;2023-02-28T15:11:41;95345.28;;;12.13;60.83